createdAt,value
2022-10-18T00:00:55.806Z,92.22
2022-10-18T00:03:24.407Z,92.72
2022-10-18T00:05:52.780Z,91.15
2022-10-18T00:08:22.189Z,90.32
2022-10-18T00:10:50.752Z,90.84
2022-10-18T00:13:20.944Z,91.56
2022-10-18T00:15:52.209Z,91.58
2022-10-18T00:18:20.578Z,91.14
2022-10-18T00:20:58.428Z,90.71
2022-10-18T00:23:28.839Z,91.08
2022-10-18T00:26:01.545Z,92.09
2022-10-18T00:28:29.265Z,91.09
2022-10-18T00:30:56.935Z,89.60
2022-10-18T00:33:24.747Z,88.90
2022-10-18T00:35:52.492Z,86.94
2022-10-18T00:38:20.170Z,86.65
2022-10-18T00:40:49.217Z,85.98
2022-10-18T00:43:19.170Z,85.73
2022-10-18T00:45:49.152Z,86.44
2022-10-18T00:48:19.554Z,86.72
2022-10-18T00:50:49.042Z,87.09
2022-10-18T00:53:20.789Z,87.19
2022-10-18T00:55:50.178Z,86.96
2022-10-18T00:58:20.040Z,86.75
2022-10-18T01:00:48.084Z,86.96
2022-10-18T01:03:15.891Z,87.50
2022-10-18T01:05:48.799Z,87.41
2022-10-18T01:08:46.004Z,88.52
2022-10-18T01:11:44.956Z,88.61
2022-10-18T01:14:36.124Z,89.95
2022-10-18T01:17:15.125Z,89.89
2022-10-18T01:20:15.480Z,89.13
2022-10-18T01:22:46.376Z,88.96
2022-10-18T01:25:27.040Z,88.35
2022-10-18T01:28:02.676Z,88.73
2022-10-18T01:30:47.364Z,89.77
2022-10-18T01:33:23.931Z,89.12
2022-10-18T01:35:57.720Z,88.44
2022-10-18T01:38:27.008Z,87.78
2022-10-18T01:40:57.502Z,88.89
2022-10-18T01:43:30.634Z,87.48
2022-10-18T01:46:01.667Z,87.23
2022-10-18T01:48:30.721Z,86.37
2022-10-18T01:50:59.116Z,86.79
2022-10-18T01:53:30.921Z,90.58
2022-10-18T01:56:14.493Z,90.32
2022-10-18T01:58:49.699Z,89.59
2022-10-18T02:01:26.837Z,88.45
2022-10-18T02:03:58.023Z,88.14
2022-10-18T02:06:30.483Z,89.53
2022-10-18T02:09:05.235Z,89.80
2022-10-18T02:11:34.892Z,89.77
2022-10-18T02:14:08.258Z,89.56
2022-10-18T02:16:42.377Z,90.11
2022-10-18T02:19:14.190Z,88.35
2022-10-18T02:21:44.485Z,87.97
2022-10-18T02:24:13.982Z,87.61
2022-10-18T02:26:41.967Z,87.45
2022-10-18T02:29:10.489Z,86.59
2022-10-18T02:31:45.668Z,87.09
2022-10-18T02:34:20.707Z,86.74
2022-10-18T02:36:52.184Z,87.43
2022-10-18T02:39:24.458Z,86.53
2022-10-18T02:41:52.342Z,85.53
2022-10-18T02:44:20.023Z,86.26
2022-10-18T02:46:49.385Z,86.00
2022-10-18T02:49:17.140Z,85.16
2022-10-18T02:51:44.874Z,85.08
2022-10-18T02:54:12.559Z,85.04
2022-10-18T02:56:40.375Z,84.73
2022-10-18T02:59:08.215Z,84.74
2022-10-18T03:01:36.852Z,85.05
2022-10-18T03:04:06.652Z,85.70
2022-10-18T03:06:34.924Z,85.65
2022-10-18T03:09:03.433Z,85.47
2022-10-18T03:11:31.254Z,85.17
2022-10-18T03:13:59.540Z,85.10
2022-10-18T03:16:27.336Z,84.97
2022-10-18T03:18:55.094Z,84.42
2022-10-18T03:21:26.498Z,84.12
2022-10-18T03:23:56.595Z,83.86
2022-10-18T03:26:24.401Z,83.91
2022-10-18T03:28:52.329Z,83.97
2022-10-18T03:31:20.119Z,84.03
2022-10-18T03:33:47.881Z,83.29
2022-10-18T03:36:15.806Z,82.75
2022-10-18T03:38:44.852Z,83.74
2022-10-18T03:41:12.580Z,84.12
2022-10-18T03:43:40.344Z,84.29
2022-10-18T03:46:10.189Z,83.82
2022-10-18T03:48:37.883Z,84.26
2022-10-18T03:51:06.039Z,83.85
2022-10-18T03:53:33.719Z,83.62
2022-10-18T03:56:05.448Z,83.49
2022-10-18T04:00:26.842Z,83.64
2022-10-18T04:02:55.998Z,83.33
2022-10-18T04:05:26.871Z,83.97
2022-10-18T04:07:55.339Z,84.40
2022-10-18T04:10:23.308Z,83.70
2022-10-18T04:12:51.038Z,83.94
2022-10-18T04:15:18.990Z,83.65
2022-10-18T04:17:48.418Z,83.19
2022-10-18T04:20:16.344Z,82.76
2022-10-18T04:22:44.049Z,84.19
2022-10-18T04:25:14.041Z,83.59
2022-10-18T04:27:41.800Z,83.35
2022-10-18T04:30:10.410Z,83.52
2022-10-18T04:32:38.226Z,83.49
2022-10-18T04:35:08.220Z,82.70
2022-10-18T04:37:35.952Z,84.46
2022-10-18T04:40:04.110Z,84.17
2022-10-18T04:42:31.784Z,83.39
2022-10-18T04:45:01.635Z,84.38
2022-10-18T04:47:29.521Z,83.61
2022-10-18T04:49:57.622Z,83.60
2022-10-18T04:52:26.750Z,84.53
2022-10-18T04:54:54.555Z,84.96
2022-10-18T04:57:22.296Z,86.26
2022-10-18T04:59:49.979Z,87.24
2022-10-18T05:02:17.718Z,87.42
2022-10-18T05:04:45.429Z,88.04
2022-10-18T05:07:13.183Z,89.48
2022-10-18T05:09:42.414Z,88.58
2022-10-18T05:12:12.381Z,88.85
2022-10-18T05:14:40.127Z,89.27
2022-10-18T05:17:07.869Z,87.14
2022-10-18T05:19:35.598Z,86.38
2022-10-18T05:22:05.728Z,85.86
2022-10-18T05:24:33.523Z,85.66
2022-10-18T05:27:02.613Z,86.80
2022-10-18T05:29:30.332Z,90.31
2022-10-18T05:32:00.116Z,88.09
2022-10-18T05:34:31.832Z,87.26
2022-10-18T05:37:02.978Z,88.05
2022-10-18T05:39:30.855Z,89.32
2022-10-18T05:42:02.427Z,89.31
2022-10-18T05:44:30.148Z,90.57
2022-10-18T05:46:57.949Z,92.00
2022-10-18T05:49:25.689Z,93.43
2022-10-18T05:51:53.417Z,93.38
2022-10-18T05:54:21.227Z,95.35
2022-10-18T05:56:49.246Z,93.87
2022-10-18T05:59:18.337Z,92.15
2022-10-18T06:01:46.020Z,91.18
2022-10-18T06:04:13.802Z,92.35
2022-10-18T06:06:41.550Z,93.80
2022-10-18T06:09:09.484Z,94.20
2022-10-18T06:11:38.057Z,95.17
2022-10-18T06:14:06.024Z,95.06
2022-10-18T06:19:07.921Z,96.27
2022-10-18T06:21:35.647Z,94.21
2022-10-18T06:24:03.419Z,93.51
2022-10-18T06:26:31.235Z,93.88
2022-10-18T06:28:59.020Z,92.67
2022-10-18T06:31:26.804Z,91.35
2022-10-18T06:33:57.007Z,92.46
2022-10-18T06:36:25.081Z,91.21
2022-10-18T06:38:52.873Z,91.38
2022-10-18T06:41:21.951Z,91.02
2022-10-18T06:43:50.733Z,88.91
2022-10-18T06:46:18.456Z,87.77
2022-10-18T06:48:47.304Z,87.14
2022-10-18T06:51:16.431Z,86.85
2022-10-18T06:53:53.449Z,86.76
2022-10-18T06:56:32.004Z,87.81
2022-10-18T06:58:59.898Z,88.52
2022-10-18T07:01:28.452Z,88.49
2022-10-18T07:03:56.865Z,87.94
2022-10-18T07:06:26.028Z,87.90
2022-10-18T07:08:54.145Z,86.89
2022-10-18T07:11:25.121Z,85.76
2022-10-18T07:13:54.014Z,86.91
2022-10-18T07:16:22.164Z,87.54
2022-10-18T07:18:51.707Z,87.98
2022-10-18T07:21:21.596Z,86.89
2022-10-18T07:23:53.714Z,86.12
2022-10-18T07:26:23.550Z,85.79
2022-10-18T07:28:54.530Z,86.84
2022-10-18T07:31:23.598Z,86.74
2022-10-18T07:33:51.691Z,87.05
2022-10-18T07:36:21.095Z,87.31
2022-10-18T07:38:51.840Z,87.10
2022-10-18T07:41:19.836Z,87.99
2022-10-18T07:43:50.720Z,88.39
2022-10-18T07:46:19.533Z,87.39
2022-10-18T07:48:47.597Z,86.65
2022-10-18T07:51:15.726Z,86.16
2022-10-18T07:53:43.668Z,85.96
2022-10-18T07:56:16.800Z,85.52
2022-10-18T07:58:45.439Z,84.31
2022-10-18T08:01:14.210Z,84.71
2022-10-18T08:03:42.786Z,84.61
2022-10-18T08:06:12.591Z,83.59
2022-10-18T08:08:41.561Z,83.29
2022-10-18T08:11:12.714Z,82.25
2022-10-18T08:13:40.496Z,81.68
2022-10-18T08:16:10.137Z,82.13
2022-10-18T08:18:38.537Z,83.04
2022-10-18T08:21:08.387Z,83.77
2022-10-18T08:23:36.543Z,83.52
2022-10-18T08:26:05.743Z,83.43
2022-10-18T08:28:36.675Z,82.33
2022-10-18T08:31:05.349Z,82.18
2022-10-18T08:33:33.913Z,82.46
2022-10-18T08:36:05.679Z,82.27
2022-10-18T08:38:34.400Z,82.36
2022-10-18T08:41:15.595Z,80.89
2022-10-18T08:43:54.085Z,82.03
2022-10-18T08:46:22.165Z,82.91
2022-10-18T08:48:54.991Z,80.50
2022-10-18T08:51:30.234Z,75.85
2022-10-18T08:54:05.035Z,75.64
2022-10-18T08:56:34.511Z,72.50
2022-10-18T08:59:05.132Z,73.08
2022-10-18T09:01:43.023Z,70.23
2022-10-18T09:04:23.993Z,66.56
2022-10-18T09:07:05.547Z,67.15
2022-10-18T09:09:40.824Z,65.03
2022-10-18T09:12:27.909Z,64.16
2022-10-18T09:15:21.322Z,66.13
2022-10-18T09:18:04.721Z,71.80
2022-10-18T09:20:41.497Z,72.62
2022-10-18T09:23:20.030Z,72.06
2022-10-18T09:25:49.947Z,71.90
2022-10-18T09:28:33.339Z,71.53
2022-10-18T09:31:08.180Z,73.47
2022-10-18T09:33:46.946Z,70.70
2022-10-18T09:36:20.245Z,71.77
2022-10-18T09:38:50.548Z,70.26
2022-10-18T09:41:24.294Z,70.81
2022-10-18T09:43:57.323Z,72.24
2022-10-18T09:46:30.167Z,71.51
2022-10-18T09:49:02.115Z,69.58
2022-10-18T09:51:35.083Z,68.74
2022-10-18T09:54:20.062Z,69.85
2022-10-18T09:56:50.914Z,71.05
2022-10-18T09:59:36.840Z,68.94
2022-10-18T10:02:07.284Z,68.74
2022-10-18T10:04:35.199Z,67.37
2022-10-18T10:07:10.248Z,67.28
2022-10-18T10:09:45.302Z,67.51
2022-10-18T10:12:28.621Z,68.19
2022-10-18T10:15:07.347Z,69.06
2022-10-18T10:17:38.887Z,68.48
2022-10-18T10:20:19.708Z,67.79
2022-10-18T10:22:49.082Z,68.17
2022-10-18T10:25:24.043Z,69.99
2022-10-18T10:27:52.118Z,68.03
2022-10-18T10:30:25.058Z,65.99
2022-10-18T10:32:57.964Z,63.51
2022-10-18T10:38:24.982Z,63.94
2022-10-18T10:40:53.611Z,62.48
2022-10-18T10:43:36.938Z,62.99
2022-10-18T10:46:09.691Z,63.25
2022-10-18T10:48:48.182Z,60.37
2022-10-18T10:51:18.453Z,62.13
2022-10-18T10:53:52.392Z,59.14
2022-10-18T10:56:26.633Z,59.21
2022-10-18T10:58:56.716Z,59.60
2022-10-18T11:01:30.312Z,61.21
2022-10-18T11:04:04.494Z,59.38
2022-10-18T11:06:57.811Z,57.69
2022-10-18T11:09:38.255Z,58.75
2022-10-18T11:12:23.716Z,58.58
2022-10-18T11:14:57.403Z,60.79
2022-10-18T11:17:33.140Z,59.92
2022-10-18T11:20:14.726Z,59.92
2022-10-18T11:22:50.970Z,61.39
2022-10-18T11:25:24.051Z,60.28
2022-10-18T11:28:00.318Z,62.34
2022-10-18T11:30:42.051Z,63.43
2022-10-18T11:33:29.526Z,64.63
2022-10-18T11:36:17.048Z,65.13
2022-10-18T11:38:54.506Z,65.17
2022-10-18T11:41:32.231Z,65.69
2022-10-18T11:44:03.712Z,65.20
2022-10-18T11:46:50.223Z,66.42
2022-10-18T11:49:37.295Z,65.94
2022-10-18T11:52:14.332Z,66.65
2022-10-18T11:54:57.513Z,65.98
2022-10-18T11:57:41.365Z,65.98
2022-10-18T12:00:20.134Z,65.08
2022-10-18T12:03:29.114Z,65.38
2022-10-18T12:06:02.803Z,66.67
2022-10-18T12:08:37.165Z,66.80
2022-10-18T12:11:13.593Z,68.06
2022-10-18T12:13:47.914Z,68.22
2022-10-18T12:16:17.414Z,64.18
2022-10-18T12:21:29.380Z,62.63
2022-10-18T12:24:03.322Z,63.75
2022-10-18T12:26:33.793Z,65.37
2022-10-18T12:29:17.012Z,65.25
2022-10-18T12:31:49.023Z,65.66
2022-10-18T12:34:27.717Z,67.00
2022-10-18T12:37:15.483Z,66.28
2022-10-18T12:40:09.034Z,68.11
2022-10-18T12:42:42.483Z,67.16
2022-10-18T12:45:24.804Z,66.84
2022-10-18T12:47:53.105Z,66.04
2022-10-18T12:50:31.928Z,65.63
2022-10-18T12:53:19.862Z,66.55
2022-10-18T12:55:51.317Z,67.04
2022-10-18T12:58:31.398Z,68.26
2022-10-18T13:01:04.601Z,65.98
2022-10-18T13:03:50.856Z,66.68
2022-10-18T13:06:21.580Z,64.14
2022-10-18T13:09:20.193Z,65.55
2022-10-18T13:11:49.729Z,64.80
2022-10-18T13:14:48.186Z,65.32
2022-10-18T13:17:35.380Z,64.72
2022-10-18T13:20:27.722Z,64.28
2022-10-18T13:23:09.021Z,63.94
2022-10-18T13:25:51.510Z,63.69
2022-10-18T13:28:29.085Z,64.27
2022-10-18T13:31:02.045Z,62.96
2022-10-18T13:33:34.482Z,65.14
2022-10-18T13:36:05.172Z,65.74
2022-10-18T13:38:50.358Z,66.66
2022-10-18T13:41:20.459Z,66.13
2022-10-18T13:43:57.981Z,66.67
2022-10-18T13:46:46.216Z,67.54
2022-10-18T13:49:30.737Z,68.54
2022-10-18T13:52:08.464Z,68.48
2022-10-18T13:54:59.971Z,68.01
2022-10-18T13:57:47.875Z,68.14
2022-10-18T14:00:31.336Z,66.89
2022-10-18T14:03:55.771Z,68.24
2022-10-18T14:06:24.892Z,69.65
2022-10-18T14:08:58.741Z,69.46
2022-10-18T14:11:35.033Z,69.25
2022-10-18T14:14:13.012Z,68.99
2022-10-18T14:16:47.610Z,70.11
2022-10-18T14:19:22.670Z,70.16
2022-10-18T14:21:56.082Z,70.79
2022-10-18T14:24:26.442Z,68.65
2022-10-18T14:27:12.744Z,68.54
2022-10-18T14:29:41.150Z,69.05
2022-10-18T14:32:10.674Z,69.45
2022-10-18T14:34:38.833Z,69.30
2022-10-18T14:37:07.929Z,71.14
2022-10-18T14:39:39.825Z,70.36
2022-10-18T14:42:21.376Z,70.47
2022-10-18T14:44:54.431Z,70.97
2022-10-18T14:47:25.534Z,71.32
2022-10-18T14:49:54.646Z,72.40
2022-10-18T14:52:30.463Z,72.92
2022-10-18T14:55:01.713Z,72.93
2022-10-18T14:57:32.885Z,73.26
2022-10-18T15:00:03.442Z,73.25
2022-10-18T15:02:37.920Z,74.34
2022-10-18T15:05:09.099Z,74.49
2022-10-18T15:07:38.596Z,73.52
2022-10-18T15:10:07.715Z,75.23
2022-10-18T15:12:45.637Z,76.53
2022-10-18T15:15:28.679Z,74.31
2022-10-18T15:17:56.929Z,73.51
2022-10-18T15:20:27.244Z,73.05
2022-10-18T15:23:21.897Z,74.70
2022-10-18T15:25:50.364Z,74.14
2022-10-18T15:28:29.089Z,73.64
2022-10-18T15:30:58.694Z,74.37
2022-10-18T15:33:27.861Z,75.37
2022-10-18T15:35:55.835Z,73.94
2022-10-18T15:38:29.254Z,74.67
2022-10-18T15:40:57.011Z,74.04
2022-10-18T15:43:36.694Z,74.37
2022-10-18T15:46:06.966Z,74.88
2022-10-18T15:48:38.339Z,74.86
2022-10-18T15:51:07.664Z,75.31
2022-10-18T15:53:54.937Z,74.81
2022-10-18T15:56:32.684Z,74.00
2022-10-18T15:59:03.931Z,74.48
2022-10-18T16:01:38.252Z,74.86
2022-10-18T16:04:12.200Z,74.17
2022-10-18T16:06:40.007Z,74.14
2022-10-18T16:09:14.037Z,74.49
2022-10-18T16:11:41.751Z,73.29
2022-10-18T16:14:09.695Z,72.94
2022-10-18T16:16:41.033Z,73.66
2022-10-18T16:19:11.070Z,73.92
2022-10-18T16:21:39.963Z,74.28
2022-10-18T16:24:11.244Z,74.81
2022-10-18T16:26:39.704Z,74.35
2022-10-18T16:29:07.834Z,73.66
2022-10-18T16:31:35.703Z,73.79
2022-10-18T16:34:04.108Z,74.86
2022-10-18T16:36:34.136Z,74.01
2022-10-18T16:39:04.507Z,73.78
2022-10-18T16:41:33.598Z,73.75
2022-10-18T16:44:01.307Z,74.16
2022-10-18T16:46:31.300Z,74.03
2022-10-18T16:48:59.096Z,74.43
2022-10-18T16:51:27.334Z,73.95
2022-10-18T16:53:55.294Z,73.63
2022-10-18T16:56:25.906Z,73.65
2022-10-18T16:58:55.346Z,73.98
2022-10-18T17:01:24.974Z,74.23
2022-10-18T17:03:53.381Z,74.76
2022-10-18T17:06:24.249Z,74.36
2022-10-18T17:08:53.310Z,73.86
2022-10-18T17:11:23.034Z,73.71
2022-10-18T17:13:50.927Z,74.15
2022-10-18T17:19:01.601Z,74.57
2022-10-18T17:21:31.392Z,74.93
2022-10-18T17:24:00.484Z,75.29
2022-10-18T17:26:29.692Z,75.99
2022-10-18T17:29:00.403Z,79.23
2022-10-18T17:31:30.694Z,81.33
2022-10-18T17:34:21.193Z,81.00
2022-10-18T17:36:51.704Z,82.27
2022-10-18T17:39:19.674Z,82.23
2022-10-18T17:41:47.365Z,82.68
2022-10-18T17:44:15.059Z,82.60
2022-10-18T17:46:43.091Z,81.27
2022-10-18T17:49:10.828Z,80.12
2022-10-18T17:51:41.072Z,80.49
2022-10-18T17:54:08.924Z,79.12
2022-10-18T17:56:36.730Z,79.07
2022-10-18T17:59:06.974Z,79.91
2022-10-18T18:01:35.079Z,79.27
2022-10-18T18:04:04.177Z,78.79
2022-10-18T18:06:34.016Z,79.76
2022-10-18T18:09:08.018Z,79.34
2022-10-18T18:11:36.515Z,79.06
2022-10-18T18:14:08.843Z,78.89
2022-10-18T18:16:37.677Z,78.59
2022-10-18T18:19:09.676Z,78.72
2022-10-18T18:21:38.919Z,79.05
2022-10-18T18:24:09.963Z,78.70
2022-10-18T18:26:39.528Z,78.65
2022-10-18T18:29:07.729Z,79.84
2022-10-18T18:31:40.063Z,80.42
2022-10-18T18:34:10.515Z,81.28
2022-10-18T18:36:38.297Z,82.12
2022-10-18T18:39:08.891Z,81.79
2022-10-18T18:41:38.320Z,86.09
2022-10-18T18:44:07.269Z,88.51
2022-10-18T18:46:38.560Z,88.84
2022-10-18T18:49:07.170Z,88.46
2022-10-18T18:51:37.369Z,88.68
2022-10-18T18:54:05.588Z,87.42
2022-10-18T18:56:34.761Z,86.13
2022-10-18T18:59:02.556Z,84.95
2022-10-18T19:01:32.669Z,84.30
2022-10-18T19:04:01.583Z,84.03
2022-10-18T19:06:31.465Z,83.63
2022-10-18T19:09:03.963Z,83.33
2022-10-18T19:11:35.521Z,83.78
2022-10-18T19:14:04.075Z,83.38
2022-10-18T19:16:32.930Z,84.78
2022-10-18T19:19:02.484Z,85.80
2022-10-18T19:21:32.784Z,86.23
2022-10-18T19:24:03.430Z,85.96
2022-10-18T19:26:36.594Z,85.03
2022-10-18T19:29:08.704Z,84.22
2022-10-18T19:31:36.571Z,84.15
2022-10-18T19:34:05.373Z,84.77
2022-10-18T19:36:33.509Z,84.51
2022-10-18T19:39:01.940Z,84.70
2022-10-18T19:41:29.708Z,84.10
2022-10-18T19:43:58.889Z,84.34
2022-10-18T19:46:27.183Z,87.63
2022-10-18T19:48:54.997Z,88.01
2022-10-18T19:51:27.028Z,86.61
2022-10-18T19:53:57.219Z,85.25
2022-10-18T19:56:28.646Z,88.66
2022-10-18T19:59:00.534Z,87.88
2022-10-18T20:01:29.541Z,87.57
2022-10-18T20:03:57.567Z,86.64
2022-10-18T20:06:25.464Z,86.29
2022-10-18T20:08:53.613Z,85.72
2022-10-18T20:11:26.470Z,87.06
2022-10-18T20:13:54.233Z,86.87
2022-10-18T20:16:28.642Z,86.15
2022-10-18T20:19:00.490Z,86.55
2022-10-18T20:21:29.869Z,88.79
2022-10-18T20:23:57.897Z,88.94
2022-10-18T20:26:26.058Z,88.37
2022-10-18T20:28:57.589Z,87.76
2022-10-18T20:31:28.700Z,87.15
2022-10-18T20:33:58.137Z,87.71
2022-10-18T20:36:26.771Z,87.21
2022-10-18T20:38:55.151Z,86.57
2022-10-18T20:41:25.771Z,86.20
2022-10-18T20:43:54.594Z,85.96
2022-10-18T20:46:23.291Z,85.19
2022-10-18T20:48:53.448Z,86.41
2022-10-18T20:51:22.291Z,88.52
2022-10-18T20:53:50.440Z,89.03
2022-10-18T20:56:20.602Z,88.92
2022-10-18T20:58:52.414Z,87.45
2022-10-18T21:01:22.495Z,87.96
2022-10-18T21:03:53.399Z,88.06
2022-10-18T21:06:23.145Z,87.32
2022-10-18T21:08:54.498Z,86.96
2022-10-18T21:11:22.323Z,85.92
2022-10-18T21:13:53.114Z,86.03
2022-10-18T21:16:20.899Z,86.05
2022-10-18T21:18:49.236Z,87.63
2022-10-18T21:21:20.105Z,89.24
2022-10-18T21:23:48.419Z,89.23
2022-10-18T21:26:18.352Z,88.77
2022-10-18T21:28:46.656Z,88.09
2022-10-18T21:31:17.945Z,88.20
2022-10-18T21:33:46.957Z,87.30
2022-10-18T21:36:15.800Z,86.69
2022-10-18T21:38:46.622Z,88.23
2022-10-18T21:41:15.558Z,89.66
2022-10-18T21:43:45.360Z,90.03
2022-10-18T21:46:14.755Z,89.82
2022-10-18T21:48:44.475Z,89.23
2022-10-18T21:51:17.562Z,89.04
2022-10-18T21:53:48.560Z,90.98
2022-10-18T21:56:18.321Z,91.95
2022-10-18T21:58:46.659Z,92.46
2022-10-18T22:01:16.248Z,92.18
2022-10-18T22:03:45.472Z,90.43
2022-10-18T22:06:15.236Z,89.51
2022-10-18T22:08:44.057Z,88.88
2022-10-18T22:11:14.579Z,87.54
2022-10-18T22:13:45.140Z,87.39
2022-10-18T22:16:15.554Z,87.18
2022-10-18T22:18:47.452Z,86.91
2022-10-18T22:21:17.370Z,86.40
2022-10-18T22:23:47.096Z,86.76
2022-10-18T22:26:18.550Z,86.46
2022-10-18T22:28:47.578Z,87.54
2022-10-18T22:31:17.057Z,89.18
2022-10-18T22:33:45.965Z,89.92
2022-10-18T22:36:14.464Z,88.64
2022-10-18T22:38:42.409Z,87.50
2022-10-18T22:41:12.337Z,87.24
2022-10-18T22:43:41.487Z,87.35
2022-10-18T22:46:13.083Z,87.11
2022-10-18T22:48:41.559Z,86.77
2022-10-18T22:51:10.236Z,86.46
2022-10-18T22:53:38.958Z,86.90
2022-10-18T22:56:08.229Z,87.80
2022-10-18T22:58:36.073Z,90.15
2022-10-18T23:01:09.563Z,91.84
2022-10-18T23:03:38.277Z,92.43
2022-10-18T23:06:15.830Z,91.09
2022-10-18T23:08:43.579Z,90.88
2022-10-18T23:11:11.345Z,90.24
2022-10-18T23:13:39.698Z,95.46
2022-10-18T23:16:09.221Z,97.12
2022-10-18T23:18:37.502Z,95.26
2022-10-18T23:21:07.093Z,94.38
2022-10-18T23:23:36.431Z,93.64
2022-10-18T23:26:08.364Z,97.94
2022-10-18T23:28:37.521Z,97.60
2022-10-18T23:31:12.268Z,94.84
2022-10-18T23:33:42.585Z,95.21
2022-10-18T23:36:10.655Z,93.75
2022-10-18T23:38:39.475Z,92.83
2022-10-18T23:41:08.881Z,91.88
2022-10-18T23:43:36.864Z,90.13
2022-10-18T23:46:07.580Z,90.66
2022-10-18T23:48:37.294Z,89.41
2022-10-18T23:51:05.604Z,88.95
2022-10-18T23:53:33.987Z,89.20
2022-10-18T23:56:04.162Z,88.69
2022-10-18T23:58:33.505Z,88.39
